Time,TemperatureF,DewpointF,PressureIn,WindDirection,WindDirectionDegrees,WindSpeedMPH,WindSpeedGustMPH,Humidity,HourlyPrecipIn,Conditions,Clouds,dailyrainin,SoftwareType,DateUTC
2013-01-07 00:02:00,27.1,23.0,29.98,SSW,208,3.0,6.0,84,0.00,,,0.00,weatherlink.com 1.10,2013-01-07 06:02:00,
2013-01-07 00:18:00,27.0,23.0,29.97,SW,219,3.0,4.0,84,0.00,,,0.00,weatherlink.com 1.10,2013-01-07 06:18:00,
2013-01-07 00:33:00,26.8,23.0,29.97,SW,226,0.0,4.0,84,0.00,,,0.00,weatherlink.com 1.10,2013-01-07 06:33:00,
2013-01-07 00:47:00,26.7,23.0,29.96,SW,214,0.0,4.0,85,0.00,,,0.00,weatherlink.com 1.10,2013-01-07 06:47:00,
2013-01-07 01:03:00,26.9,23.0,29.96,SSW,211,2.0,5.0,85,0.00,,,0.00,weatherlink.com 1.10,2013-01-07 07:03:00,
2013-01-07 01:17:00,27.3,23.0,29.96,SSW,207,2.0,7.0,84,0.00,,,0.00,weatherlink.com 1.10,2013-01-07 07:17:00,
2013-01-07 01:32:00,27.7,23.0,29.95,SW,220,4.0,4.0,83,0.00,,,0.00,weatherlink.com 1.10,2013-01-07 07:32:00,
2013-01-07 01:47:00,27.9,23.0,29.95,SW,232,0.0,4.0,83,0.00,,,0.00,weatherlink.com 1.10,2013-01-07 07:47:00,
2013-01-07 02:03:00,28.1,23.0,29.95,SSW,204,4.0,6.0,82,0.00,,,0.00,weatherlink.com 1.10,2013-01-07 08:03:00,
2013-01-07 02:17:00,28.2,23.0,29.94,South,183,3.0,7.0,82,0.00,,,0.00,weatherlink.com 1.10,2013-01-07 08:17:00,
2013-01-07 02:33:00,28.7,24.0,29.94,SW,220,3.0,8.0,81,0.00,,,0.00,weatherlink.com 1.10,2013-01-07 08:33:00,
2013-01-07 02:48:00,28.9,23.0,29.95,SW,223,0.0,7.0,80,0.00,,,0.00,weatherlink.com 1.10,2013-01-07 08:48:00,
2013-01-07 03:02:00,29.0,24.0,29.94,SW,223,2.0,7.0,80,0.00,,,0.00,weatherlink.com 1.10,2013-01-07 09:02:00,
2013-01-07 03:18:00,29.2,24.0,29.93,SW,217,0.0,9.0,80,0.00,,,0.00,weatherlink.com 1.10,2013-01-07 09:18:00,
2013-01-07 03:33:00,29.3,24.0,29.92,SSW,207,7.0,9.0,79,0.00,,,0.00,weatherlink.com 1.10,2013-01-07 09:33:00,
2013-01-07 03:47:00,29.7,24.0,29.91,SSW,204,4.0,13.0,78,0.00,,,0.00,weatherlink.com 1.10,2013-01-07 09:47:00,
2013-01-07 04:03:00,30.1,24.0,29.91,SW,219,2.0,10.0,78,0.00,,,0.00,weatherlink.com 1.10,2013-01-07 10:03:00,
2013-01-07 04:18:00,30.5,24.0,29.91,SW,227,5.0,7.0,77,0.00,,,0.00,weatherlink.com 1.10,2013-01-07 10:18:00,
2013-01-07 04:33:00,30.3,24.0,29.90,South,177,1.0,9.0,77,0.00,,,0.00,weatherlink.com 1.10,2013-01-07 10:33:00,
2013-01-07 04:48:00,30.4,24.0,29.89,SW,225,3.0,9.0,76,0.00,,,0.00,weatherlink.com 1.10,2013-01-07 10:48:00,
2013-01-07 05:03:00,30.4,24.0,29.89,SSW,200,4.0,7.0,76,0.00,,,0.00,weatherlink.com 1.10,2013-01-07 11:03:00,
2013-01-07 05:18:00,30.6,24.0,29.87,WSW,238,6.0,10.0,76,0.00,,,0.00,weatherlink.com 1.10,2013-01-07 11:18:00,
2013-01-07 05:33:00,30.5,24.0,29.86,South,180,3.0,9.0,76,0.00,,,0.00,weatherlink.com 1.10,2013-01-07 11:33:00,
2013-01-07 05:48:00,30.5,24.0,29.86,SW,233,6.0,10.0,76,0.00,,,0.00,weatherlink.com 1.10,2013-01-07 11:48:00,
2013-01-07 06:03:00,30.5,24.0,29.86,SSW,197,1.0,9.0,76,0.00,,,0.00,weatherlink.com 1.10,2013-01-07 12:03:00,
2013-01-07 06:18:00,30.4,24.0,29.87,SW,223,7.0,9.0,76,0.00,,,0.00,weatherlink.com 1.10,2013-01-07 12:18:00,
2013-01-07 06:33:00,30.2,24.0,29.86,SSW,213,0.0,11.0,77,0.00,,,0.00,weatherlink.com 1.10,2013-01-07 12:33:00,
2013-01-07 06:48:00,30.0,24.0,29.88,SW,214,0.0,5.0,77,0.00,,,0.00,weatherlink.com 1.10,2013-01-07 12:48:00,
2013-01-07 07:03:00,30.0,24.0,29.87,SW,227,4.0,5.0,77,0.00,,,0.00,weatherlink.com 1.10,2013-01-07 13:03:00,
2013-01-07 07:18:00,30.2,24.0,29.87,SW,221,0.0,6.0,77,0.00,,,0.00,weatherlink.com 1.10,2013-01-07 13:18:00,
2013-01-07 07:34:00,30.6,24.0,29.86,SSW,196,3.0,8.0,77,0.00,,,0.00,weatherlink.com 1.10,2013-01-07 13:34:00,
2013-01-07 07:48:00,31.5,25.0,29.86,WSW,252,0.0,7.0,76,0.00,,,0.00,weatherlink.com 1.10,2013-01-07 13:48:00,
2013-01-07 08:03:00,32.3,25.0,29.86,SW,235,3.0,7.0,75,0.00,,,0.00,weatherlink.com 1.10,2013-01-07 14:03:00,
2013-01-07 08:19:00,33.0,25.0,29.87,WSW,252,2.0,7.0,73,0.00,,,0.00,weatherlink.com 1.10,2013-01-07 14:19:00,
2013-01-07 08:34:00,33.4,26.0,29.87,WSW,250,1.0,6.0,73,0.00,,,0.00,weatherlink.com 1.10,2013-01-07 14:34:00,
2013-01-07 08:48:00,33.5,26.0,29.87,SW,232,0.0,6.0,73,0.00,,,0.00,weatherlink.com 1.10,2013-01-07 14:48:00,
2013-01-07 09:03:00,33.9,26.0,29.87,WSW,237,0.0,4.0,73,0.00,,,0.00,weatherlink.com 1.10,2013-01-07 15:03:00,
2013-01-07 09:19:00,34.8,27.0,29.88,SW,217,4.0,8.0,72,0.00,,,0.00,weatherlink.com 1.10,2013-01-07 15:19:00,
2013-01-07 09:33:00,35.5,27.0,29.88,WNW,286,1.0,7.0,71,0.00,,,0.00,weatherlink.com 1.10,2013-01-07 15:33:00,
2013-01-07 09:48:00,36.0,27.0,29.88,SW,227,1.0,8.0,70,0.00,,,0.00,weatherlink.com 1.10,2013-01-07 15:48:00,
2013-01-07 10:04:00,36.4,27.0,29.88,SW,223,4.0,8.0,69,0.00,,,0.00,weatherlink.com 1.10,2013-01-07 16:04:00,
2013-01-07 10:19:00,37.0,28.0,29.89,SSW,212,4.0,7.0,69,0.00,,,0.00,weatherlink.com 1.10,2013-01-07 16:19:00,
2013-01-07 10:34:00,37.4,27.0,29.89,SW,225,2.0,9.0,67,0.00,,,0.00,weatherlink.com 1.10,2013-01-07 16:34:00,
2013-01-07 10:49:00,37.7,28.0,29.89,SW,235,2.0,10.0,67,0.00,,,0.00,weatherlink.com 1.10,2013-01-07 16:49:00,
2013-01-07 11:04:00,38.2,28.0,29.88,SSW,202,6.0,12.0,67,0.00,,,0.00,weatherlink.com 1.10,2013-01-07 17:04:00,
2013-01-07 11:19:00,38.4,28.0,29.88,SW,221,4.0,11.0,67,0.00,,,0.00,weatherlink.com 1.10,2013-01-07 17:19:00,
2013-01-07 11:34:00,38.5,28.0,29.87,SW,224,3.0,9.0,66,0.00,,,0.00,weatherlink.com 1.10,2013-01-07 17:34:00,
2013-01-07 11:49:00,38.5,28.0,29.86,NNW,342,1.0,5.0,67,0.00,,,0.00,weatherlink.com 1.10,2013-01-07 17:49:00,
2013-01-07 12:04:00,38.5,28.0,29.84,SW,236,1.0,8.0,67,0.00,,,0.00,weatherlink.com 1.10,2013-01-07 18:04:00,
2013-01-07 12:23:00,38.7,29.0,29.83,SW,232,0.0,9.0,67,0.00,,,0.00,weatherlink.com 1.10,2013-01-07 18:23:00,
2013-01-07 12:34:00,38.9,29.0,29.84,SW,225,0.0,9.0,67,0.00,,,0.00,weatherlink.com 1.10,2013-01-07 18:34:00,
2013-01-07 12:49:00,39.5,29.0,29.84,West,267,3.0,5.0,67,0.00,,,0.00,weatherlink.com 1.10,2013-01-07 18:49:00,
2013-01-07 13:04:00,39.1,29.0,29.83,West,277,0.0,10.0,67,0.00,,,0.00,weatherlink.com 1.10,2013-01-07 19:04:00,
2013-01-07 13:19:00,38.9,29.0,29.83,WSW,240,5.0,10.0,67,0.00,,,0.00,weatherlink.com 1.10,2013-01-07 19:19:00,
2013-01-07 13:34:00,38.5,29.0,29.82,West,267,1.0,9.0,68,0.00,,,0.00,weatherlink.com 1.10,2013-01-07 19:34:00,
2013-01-07 13:49:00,38.4,29.0,29.83,WSW,256,0.0,8.0,69,0.00,,,0.00,weatherlink.com 1.10,2013-01-07 19:49:00,
2013-01-07 14:04:00,38.7,29.0,29.84,SW,223,2.0,6.0,69,0.00,,,0.00,weatherlink.com 1.10,2013-01-07 20:04:00,
2013-01-07 14:19:00,39.2,30.0,29.83,WSW,237,1.0,6.0,69,0.00,,,0.00,weatherlink.com 1.10,2013-01-07 20:19:00,
2013-01-07 14:34:00,39.5,30.0,29.83,WNW,288,0.0,5.0,68,0.00,,,0.00,weatherlink.com 1.10,2013-01-07 20:34:00,
2013-01-07 14:49:00,38.8,29.0,29.83,West,277,0.0,5.0,69,0.00,,,0.00,weatherlink.com 1.10,2013-01-07 20:49:00,
2013-01-07 15:04:00,38.7,29.0,29.83,NW,306,3.0,4.0,69,0.00,,,0.00,weatherlink.com 1.10,2013-01-07 21:04:00,
2013-01-07 15:19:00,38.4,29.0,29.84,West,271,4.0,5.0,69,0.00,,,0.00,weatherlink.com 1.10,2013-01-07 21:19:00,
2013-01-07 15:34:00,38.5,29.0,29.84,WNW,282,0.0,4.0,69,0.00,,,0.00,weatherlink.com 1.10,2013-01-07 21:34:00,
2013-01-07 15:49:00,38.6,29.0,29.84,SW,221,3.0,5.0,69,0.00,,,0.00,weatherlink.com 1.10,2013-01-07 21:49:00,
2013-01-07 16:04:00,38.3,29.0,29.84,SSW,208,0.0,5.0,69,0.00,,,0.00,weatherlink.com 1.10,2013-01-07 22:04:00,
2013-01-07 16:19:00,38.5,29.0,29.83,WNW,294,0.0,3.0,70,0.00,,,0.00,weatherlink.com 1.10,2013-01-07 22:19:00,
2013-01-07 16:34:00,38.2,29.0,29.82,South,182,0.0,3.0,69,0.00,,,0.00,weatherlink.com 1.10,2013-01-07 22:34:00,
2013-01-07 16:50:00,37.4,29.0,29.82,South,190,0.0,2.0,71,0.00,,,0.00,weatherlink.com 1.10,2013-01-07 22:50:00,
2013-01-07 17:05:00,36.6,28.0,29.82,South,190,0.0,0.0,72,0.00,,,0.00,weatherlink.com 1.10,2013-01-07 23:05:00,
2013-01-07 17:20:00,35.6,28.0,29.82,South,190,0.0,0.0,74,0.00,,,0.00,weatherlink.com 1.10,2013-01-07 23:20:00,
2013-01-07 17:34:00,34.7,28.0,29.83,South,190,0.0,0.0,77,0.00,,,0.00,weatherlink.com 1.10,2013-01-07 23:34:00,
2013-01-07 17:49:00,33.8,28.0,29.84,South,190,0.0,0.0,78,0.00,,,0.00,weatherlink.com 1.10,2013-01-07 23:49:00,
2013-01-07 18:05:00,32.8,27.0,29.84,South,190,0.0,0.0,80,0.00,,,0.00,weatherlink.com 1.10,2013-01-08 00:05:00,
2013-01-07 18:19:00,32.0,27.0,29.84,South,190,0.0,0.0,81,0.00,,,0.00,weatherlink.com 1.10,2013-01-08 00:19:00,
2013-01-07 18:34:00,31.1,27.0,29.84,South,190,0.0,0.0,83,0.00,,,0.00,weatherlink.com 1.10,2013-01-08 00:34:00,
2013-01-07 18:49:00,30.4,26.0,29.84,South,190,0.0,0.0,84,0.00,,,0.00,weatherlink.com 1.10,2013-01-08 00:49:00,
2013-01-07 19:04:00,29.7,26.0,29.84,South,190,0.0,0.0,85,0.00,,,0.00,weatherlink.com 1.10,2013-01-08 01:04:00,
2013-01-07 19:19:00,29.3,26.0,29.84,South,190,0.0,0.0,86,0.00,,,0.00,weatherlink.com 1.10,2013-01-08 01:19:00,
2013-01-07 19:34:00,28.8,25.0,29.84,South,190,0.0,0.0,87,0.00,,,0.00,weatherlink.com 1.10,2013-01-08 01:34:00,
2013-01-07 19:49:00,28.4,25.0,29.83,South,190,0.0,0.0,88,0.00,,,0.00,weatherlink.com 1.10,2013-01-08 01:49:00,
2013-01-07 20:04:00,28.0,25.0,29.84,South,190,0.0,0.0,88,0.00,,,0.00,weatherlink.com 1.10,2013-01-08 02:04:00,
2013-01-07 20:19:00,28.0,26.0,29.84,South,190,0.0,0.0,90,0.00,,,0.00,weatherlink.com 1.10,2013-01-08 02:19:00,
2013-01-07 20:35:00,27.7,25.0,29.83,South,190,0.0,0.0,89,0.00,,,0.00,weatherlink.com 1.10,2013-01-08 02:35:00,
2013-01-07 20:49:00,27.2,24.0,29.82,South,190,0.0,0.0,89,0.00,,,0.00,weatherlink.com 1.10,2013-01-08 02:49:00,
2013-01-07 21:08:00,26.6,24.0,29.83,South,190,0.0,0.0,89,0.00,,,0.00,weatherlink.com 1.10,2013-01-08 03:08:00,
2013-01-07 21:19:00,26.3,24.0,29.82,South,190,0.0,0.0,90,0.00,,,0.00,weatherlink.com 1.10,2013-01-08 03:19:00,
2013-01-07 21:34:00,26.2,24.0,29.82,South,190,0.0,0.0,90,0.00,,,0.00,weatherlink.com 1.10,2013-01-08 03:34:00,
2013-01-07 21:49:00,25.8,24.0,29.82,South,190,0.0,0.0,91,0.00,,,0.00,weatherlink.com 1.10,2013-01-08 03:49:00,
2013-01-07 22:04:00,26.0,24.0,29.81,South,190,0.0,0.0,91,0.00,,,0.00,weatherlink.com 1.10,2013-01-08 04:04:00,
2013-01-07 22:19:00,25.8,24.0,29.81,South,190,0.0,0.0,91,0.00,,,0.00,weatherlink.com 1.10,2013-01-08 04:19:00,
2013-01-07 22:34:00,25.5,23.0,29.81,South,190,0.0,0.0,91,0.00,,,0.00,weatherlink.com 1.10,2013-01-08 04:34:00,
2013-01-07 22:49:00,25.0,23.0,29.80,South,190,0.0,0.0,91,0.00,,,0.00,weatherlink.com 1.10,2013-01-08 04:49:00,
2013-01-07 23:04:00,24.3,22.0,29.80,South,190,0.0,0.0,91,0.00,,,0.00,weatherlink.com 1.10,2013-01-08 05:04:00,
2013-01-07 23:19:00,24.7,23.0,29.80,South,190,0.0,0.0,92,0.00,,,0.00,weatherlink.com 1.10,2013-01-08 05:19:00,
2013-01-07 23:34:00,24.8,23.0,29.79,South,190,0.0,0.0,92,0.00,,,0.00,weatherlink.com 1.10,2013-01-08 05:34:00,
2013-01-07 23:49:00,24.3,22.0,29.79,South,190,0.0,0.0,92,0.00,,,0.00,weatherlink.com 1.10,2013-01-08 05:49:00,